createdAt,value
2019-02-20T00:01:13.160Z,15.93
2019-02-20T00:03:42.498Z,15.17
2019-02-20T00:06:11.813Z,12.47
2019-02-20T00:08:41.076Z,19.23
2019-02-20T00:11:10.367Z,14.17
2019-02-20T00:13:39.968Z,9.27
2019-02-20T00:16:09.300Z,16.73
2019-02-20T00:18:38.544Z,19.17
2019-02-20T00:21:07.735Z,11.73
2019-02-20T00:23:36.971Z,17.67
2019-02-20T00:26:06.250Z,13.33
2019-02-20T00:28:35.415Z,17.70
2019-02-20T00:31:04.691Z,19.00
2019-02-20T00:33:34.048Z,19.83
2019-02-20T00:36:03.374Z,15.03
2019-02-20T00:38:32.608Z,16.23
2019-02-20T00:41:01.883Z,14.83
2019-02-20T00:43:31.116Z,16.77
2019-02-20T00:46:14.726Z,15.03
2019-02-20T00:48:49.131Z,13.63
2019-02-20T00:51:40.247Z,15.43
2019-02-20T00:54:09.565Z,16.43
2019-02-20T00:56:39.206Z,14.77
2019-02-20T00:59:08.424Z,15.07
2019-02-20T01:01:37.673Z,16.67
2019-02-20T01:04:06.852Z,15.33
2019-02-20T01:06:36.176Z,16.33
2019-02-20T01:09:07.211Z,15.83
2019-02-20T01:11:36.459Z,12.57
2019-02-20T01:14:05.720Z,14.57
2019-02-20T01:16:34.938Z,13.50
2019-02-20T01:19:04.238Z,16.40
2019-02-20T01:21:33.602Z,10.93
2019-02-20T01:24:02.875Z,10.63
2019-02-20T01:26:32.190Z,14.00
2019-02-20T01:29:01.471Z,14.07
2019-02-20T01:31:30.619Z,17.13
2019-02-20T01:33:59.803Z,14.63
2019-02-20T01:36:29.042Z,17.13
2019-02-20T01:38:58.290Z,15.00
2019-02-20T01:41:27.451Z,14.97
2019-02-20T01:43:56.669Z,14.27
2019-02-20T01:46:25.963Z,15.13
2019-02-20T01:48:55.196Z,15.13
2019-02-20T01:51:24.349Z,17.63
2019-02-20T01:53:53.528Z,17.13
2019-02-20T01:56:22.838Z,15.20
2019-02-20T01:58:52.101Z,15.10
2019-02-20T02:01:21.259Z,10.37
2019-02-20T02:03:50.408Z,17.67
2019-02-20T02:06:19.679Z,10.40
2019-02-20T02:08:48.931Z,17.87
2019-02-20T02:11:18.248Z,16.27
2019-02-20T02:13:47.531Z,13.90
2019-02-20T02:16:16.860Z,14.53
2019-02-20T02:18:46.099Z,12.80
2019-02-20T02:21:15.363Z,14.07
2019-02-20T02:23:44.604Z,12.97
2019-02-20T02:26:13.951Z,15.13
2019-02-20T02:28:43.188Z,14.47
2019-02-20T02:31:12.516Z,17.93
2019-02-20T02:33:41.691Z,14.80
2019-02-20T02:36:10.952Z,14.30
2019-02-20T02:38:40.190Z,13.73
2019-02-20T02:41:09.388Z,13.50
2019-02-20T02:43:38.655Z,13.33
2019-02-20T02:46:07.908Z,16.17
2019-02-20T02:48:37.172Z,17.43
2019-02-20T02:51:06.514Z,26.13
2019-02-20T02:53:35.677Z,22.27
2019-02-20T02:56:04.941Z,18.37
2019-02-20T02:58:34.186Z,14.47
2019-02-20T03:01:03.497Z,15.77
2019-02-20T03:03:32.851Z,14.90
2019-02-20T03:06:02.093Z,20.00
2019-02-20T03:08:31.322Z,25.90
2019-02-20T03:11:00.483Z,25.60
2019-02-20T03:13:29.750Z,18.03
2019-02-20T03:15:58.989Z,18.43
2019-02-20T03:18:28.324Z,15.37
2019-02-20T03:20:57.565Z,17.83
2019-02-20T03:23:26.891Z,20.73
2019-02-20T03:25:56.128Z,17.50
2019-02-20T03:28:25.311Z,17.20
2019-02-20T03:30:54.541Z,15.53
2019-02-20T03:33:23.813Z,14.03
2019-02-20T03:35:53.156Z,14.43
2019-02-20T03:38:30.075Z,13.20
2019-02-20T03:40:53.312Z,14.60
2019-02-20T03:43:22.617Z,20.33
2019-02-20T03:45:51.848Z,15.43
2019-02-20T03:48:21.064Z,16.47
2019-02-20T03:50:50.309Z,19.13
2019-02-20T03:53:19.545Z,18.87
2019-02-20T03:55:48.802Z,19.20
2019-02-20T03:58:18.129Z,14.83
2019-02-20T04:00:47.296Z,18.03
2019-02-20T04:03:16.548Z,18.53
2019-02-20T04:05:45.812Z,18.87
2019-02-20T04:08:14.992Z,18.90
2019-02-20T04:10:44.259Z,19.03
2019-02-20T04:13:13.549Z,18.00
2019-02-20T04:15:42.730Z,18.17
2019-02-20T04:18:11.960Z,17.40
2019-02-20T04:20:41.251Z,17.33
2019-02-20T04:23:10.409Z,23.77
2019-02-20T04:25:39.747Z,17.40
2019-02-20T04:28:09.059Z,16.90
2019-02-20T04:30:38.316Z,19.63
2019-02-20T04:33:07.557Z,22.80
2019-02-20T04:35:36.837Z,18.73
2019-02-20T04:38:06.128Z,22.10
2019-02-20T04:40:35.318Z,24.27
2019-02-20T04:43:04.584Z,23.20
2019-02-20T04:45:33.777Z,21.80
2019-02-20T04:48:03.140Z,21.87
2019-02-20T04:50:32.393Z,23.97
2019-02-20T04:53:01.627Z,21.50
2019-02-20T04:55:30.891Z,18.33
2019-02-20T04:58:25.132Z,27.23
2019-02-20T05:00:54.320Z,19.83
2019-02-20T05:03:23.483Z,20.80
2019-02-20T05:05:52.747Z,23.23
2019-02-20T05:08:21.978Z,23.20
2019-02-20T05:10:51.242Z,20.70
2019-02-20T05:13:20.549Z,21.10
2019-02-20T05:15:51.358Z,20.10
2019-02-20T05:18:20.629Z,19.60
2019-02-20T05:20:49.963Z,20.17
2019-02-20T05:23:19.156Z,22.40
2019-02-20T05:25:48.453Z,21.27
2019-02-20T05:28:17.657Z,20.77
2019-02-20T05:30:46.908Z,17.33
2019-02-20T05:33:16.087Z,16.87
2019-02-20T05:35:45.372Z,22.90
2019-02-20T05:38:14.712Z,20.37
2019-02-20T05:40:43.991Z,20.93
2019-02-20T05:43:13.256Z,23.23
2019-02-20T05:45:42.484Z,22.20
2019-02-20T05:48:11.854Z,18.97
2019-02-20T05:50:41.093Z,28.23
2019-02-20T05:53:10.351Z,18.40
2019-02-20T05:55:39.514Z,23.50
2019-02-20T05:58:08.856Z,20.37
2019-02-20T06:00:49.124Z,23.23
2019-02-20T06:03:09.696Z,20.53
2019-02-20T06:05:38.930Z,28.83
2019-02-20T06:08:08.201Z,24.73
2019-02-20T06:10:37.487Z,22.90
2019-02-20T06:13:06.820Z,26.87
2019-02-20T06:15:35.993Z,20.37
2019-02-20T06:18:05.278Z,27.27
2019-02-20T06:20:34.579Z,25.33
2019-02-20T06:23:03.849Z,26.83
2019-02-20T06:25:33.153Z,26.50
2019-02-20T06:28:02.386Z,27.33
2019-02-20T06:30:31.568Z,25.40
2019-02-20T06:33:00.718Z,28.33
2019-02-20T06:35:30.087Z,25.33
2019-02-20T06:37:59.328Z,27.23
2019-02-20T06:40:28.520Z,26.60
2019-02-20T06:42:57.775Z,24.10
2019-02-20T06:45:26.971Z,27.77
2019-02-20T06:47:56.223Z,22.37
2019-02-20T06:50:25.483Z,26.73
2019-02-20T06:52:54.644Z,23.43
2019-02-20T06:55:23.933Z,24.83
2019-02-20T06:57:53.171Z,32.70
2019-02-20T07:00:22.520Z,23.90
2019-02-20T07:02:51.744Z,25.27
2019-02-20T07:05:34.850Z,29.43
2019-02-20T07:08:45.257Z,28.23
2019-02-20T07:11:43.977Z,28.60
2019-02-20T07:14:49.011Z,25.77
2019-02-20T07:17:47.962Z,27.27
2019-02-20T07:20:49.944Z,27.17
2019-02-20T07:23:46.840Z,30.60
2019-02-20T07:26:47.420Z,28.60
2019-02-20T07:29:44.332Z,29.47
2019-02-20T07:32:16.492Z,28.83
2019-02-20T07:34:45.734Z,30.93
2019-02-20T07:37:14.997Z,29.50
2019-02-20T07:39:45.082Z,51.40
2019-02-20T07:42:14.269Z,32.33
2019-02-20T07:44:43.603Z,19.03
2019-02-20T07:47:13.027Z,29.27
2019-02-20T07:49:42.214Z,26.10
2019-02-20T07:52:11.479Z,30.90
2019-02-20T07:54:40.712Z,25.03
2019-02-20T07:57:10.050Z,32.90
2019-02-20T07:59:39.202Z,20.80
2019-02-20T08:02:08.434Z,30.97
2019-02-20T08:04:37.678Z,29.07
2019-02-20T08:07:07.260Z,21.37
2019-02-20T08:09:36.701Z,25.70
2019-02-20T08:12:05.974Z,27.00
2019-02-20T08:14:35.147Z,26.87
2019-02-20T08:17:04.493Z,32.17
2019-02-20T08:19:33.727Z,31.27
2019-02-20T08:22:03.128Z,26.03
2019-02-20T08:24:32.362Z,26.13
2019-02-20T08:27:01.596Z,26.23
2019-02-20T08:29:31.180Z,19.33
2019-02-20T08:32:00.331Z,24.30
2019-02-20T08:34:29.516Z,31.73
2019-02-20T08:36:58.701Z,37.40
2019-02-20T08:39:28.003Z,30.43
2019-02-20T08:41:57.245Z,27.97
2019-02-20T08:44:26.499Z,28.77
2019-02-20T08:46:55.807Z,29.40
2019-02-20T08:49:25.028Z,23.83
2019-02-20T08:51:54.246Z,27.03
2019-02-20T08:54:23.555Z,31.97
2019-02-20T08:56:52.707Z,16.93
2019-02-20T08:59:21.896Z,27.63
2019-02-20T09:01:51.137Z,30.47
2019-02-20T09:04:20.468Z,18.63
2019-02-20T09:06:49.697Z,21.13
2019-02-20T09:09:18.954Z,24.67
2019-02-20T09:11:48.179Z,21.03
2019-02-20T09:14:17.507Z,29.40
2019-02-20T09:16:46.695Z,18.60
2019-02-20T09:19:16.203Z,23.70
2019-02-20T09:21:45.427Z,20.23
2019-02-20T09:24:14.654Z,25.77
2019-02-20T09:26:43.917Z,24.53
2019-02-20T09:29:13.199Z,18.23
2019-02-20T09:31:42.447Z,24.47
2019-02-20T09:34:11.673Z,29.70
2019-02-20T09:36:40.944Z,20.00
2019-02-20T09:39:30.144Z,23.77
2019-02-20T09:42:00.378Z,19.07
2019-02-20T09:44:31.796Z,23.20
2019-02-20T09:47:00.987Z,18.23
2019-02-20T09:49:30.375Z,21.60
2019-02-20T09:51:59.713Z,19.17
2019-02-20T09:54:28.867Z,28.37
2019-02-20T09:56:58.391Z,17.80
2019-02-20T09:59:27.686Z,22.73
2019-02-20T10:01:56.942Z,17.03
2019-02-20T10:04:26.180Z,22.67
2019-02-20T10:06:55.363Z,17.27
2019-02-20T10:09:24.895Z,16.70
2019-02-20T10:11:54.161Z,24.80
2019-02-20T10:14:23.408Z,17.53
2019-02-20T10:16:54.018Z,25.97
2019-02-20T10:19:23.433Z,22.40
2019-02-20T10:21:52.751Z,20.02
2019-02-20T10:24:21.984Z,22.27
2019-02-20T10:26:58.605Z,20.37
2019-02-20T10:29:22.181Z,16.67
2019-02-20T10:31:51.459Z,19.60
2019-02-20T10:34:20.676Z,17.30
2019-02-20T10:36:49.913Z,19.57
2019-02-20T10:39:19.176Z,16.67
2019-02-20T10:41:48.494Z,19.60
2019-02-20T10:44:17.832Z,19.20
2019-02-20T10:46:47.056Z,18.77
2019-02-20T10:49:16.415Z,19.87
2019-02-20T10:51:45.646Z,17.60
2019-02-20T10:54:14.916Z,19.40
2019-02-20T10:56:44.144Z,20.40
2019-02-20T10:59:13.458Z,19.63
2019-02-20T11:01:42.619Z,17.83
2019-02-20T11:04:11.899Z,18.27
2019-02-20T11:06:41.169Z,19.50
2019-02-20T11:09:10.419Z,22.53
2019-02-20T11:11:39.733Z,22.93
2019-02-20T11:14:08.920Z,19.77
2019-02-20T11:16:38.224Z,24.57
2019-02-20T11:19:07.508Z,21.97
2019-02-20T11:21:36.704Z,20.43
2019-02-20T11:24:05.888Z,22.27
2019-02-20T11:26:46.069Z,18.57
2019-02-20T11:29:05.960Z,22.13
2019-02-20T11:31:35.203Z,21.17
2019-02-20T11:34:04.456Z,24.23
2019-02-20T11:36:33.723Z,26.00
2019-02-20T11:39:04.277Z,21.40
2019-02-20T11:41:33.536Z,21.30
2019-02-20T11:44:02.771Z,24.00
2019-02-20T11:46:32.028Z,17.97
2019-02-20T11:49:01.327Z,19.07
2019-02-20T11:51:30.601Z,19.43
2019-02-20T11:53:59.764Z,20.00
2019-02-20T11:56:29.047Z,22.67
2019-02-20T11:58:58.357Z,22.23
2019-02-20T12:01:27.639Z,19.80
2019-02-20T12:03:56.806Z,21.47
2019-02-20T12:06:26.007Z,17.67
2019-02-20T12:08:55.691Z,20.20
2019-02-20T12:11:25.126Z,20.43
2019-02-20T12:13:54.395Z,22.40
2019-02-20T12:16:23.689Z,18.43
2019-02-20T12:18:52.923Z,20.07
2019-02-20T12:21:22.111Z,25.63
2019-02-20T12:23:51.340Z,22.60
2019-02-20T12:26:20.599Z,20.03
2019-02-20T12:28:50.827Z,22.93
2019-02-20T12:31:20.010Z,24.43
2019-02-20T12:33:49.235Z,20.90
2019-02-20T12:36:18.527Z,25.13
2019-02-20T12:38:47.756Z,22.80
2019-02-20T12:41:17.015Z,19.77
2019-02-20T12:43:46.173Z,26.53
2019-02-20T12:46:15.331Z,22.13
2019-02-20T12:48:44.555Z,23.73
2019-02-20T12:51:13.711Z,23.40
2019-02-20T12:53:43.650Z,26.87
2019-02-20T12:56:13.060Z,25.00
2019-02-20T12:58:42.324Z,21.63
2019-02-20T13:01:11.493Z,21.30
2019-02-20T13:03:40.833Z,21.67
2019-02-20T13:06:09.990Z,25.70
2019-02-20T13:08:39.252Z,24.20
2019-02-20T13:11:08.547Z,19.60
2019-02-20T13:13:37.752Z,23.40
2019-02-20T13:16:09.578Z,24.63
2019-02-20T13:18:37.999Z,21.67
2019-02-20T13:21:07.240Z,25.70
2019-02-20T13:23:36.514Z,22.87
2019-02-20T13:26:05.675Z,20.57
2019-02-20T13:28:34.890Z,23.23
2019-02-20T13:31:04.053Z,22.87
2019-02-20T13:33:33.251Z,22.23
2019-02-20T13:36:02.501Z,24.23
2019-02-20T13:38:31.922Z,21.00
2019-02-20T13:41:01.165Z,23.33
2019-02-20T13:43:30.831Z,23.93
2019-02-20T13:46:00.064Z,24.40
2019-02-20T13:48:29.427Z,23.60
2019-02-20T13:50:58.754Z,24.10
2019-02-20T13:53:28.051Z,21.63
2019-02-20T13:55:57.316Z,24.30
2019-02-20T13:58:26.947Z,26.00
2019-02-20T14:00:56.283Z,23.10
2019-02-20T14:03:25.591Z,26.10
2019-02-20T14:05:54.927Z,25.17
2019-02-20T14:08:24.244Z,20.63
2019-02-20T14:10:53.512Z,21.47
2019-02-20T14:13:23.234Z,24.53
2019-02-20T14:15:52.506Z,22.60
2019-02-20T14:18:21.733Z,23.43
2019-02-20T14:20:50.992Z,23.83
2019-02-20T14:23:20.259Z,22.77
2019-02-20T14:25:49.601Z,21.37
2019-02-20T14:28:18.918Z,26.00
2019-02-20T14:30:48.472Z,24.87
2019-02-20T14:33:17.700Z,22.70
2019-02-20T14:35:46.972Z,25.10
2019-02-20T14:38:16.224Z,24.80
2019-02-20T14:40:45.489Z,25.63
2019-02-20T14:43:14.802Z,28.10
2019-02-20T14:45:44.436Z,25.97
2019-02-20T14:48:13.782Z,26.27
2019-02-20T14:50:43.048Z,32.33
2019-02-20T14:53:12.355Z,31.33
2019-02-20T14:55:41.671Z,33.23
2019-02-20T14:58:10.930Z,31.20
2019-02-20T15:00:40.543Z,32.50
2019-02-20T15:03:09.880Z,28.83
2019-02-20T15:05:39.121Z,27.13
2019-02-20T15:08:08.379Z,29.67
2019-02-20T15:10:37.607Z,31.43
2019-02-20T15:13:07.012Z,31.13
2019-02-20T15:15:36.265Z,27.57
2019-02-20T15:18:06.200Z,28.47
2019-02-20T15:20:35.697Z,30.07
2019-02-20T15:23:05.059Z,28.30
2019-02-20T15:25:34.373Z,32.20
2019-02-20T15:28:04.707Z,26.13
2019-02-20T15:30:34.120Z,24.73
2019-02-20T15:33:03.649Z,24.60
2019-02-20T15:35:32.962Z,26.47
2019-02-20T15:38:02.306Z,24.93
2019-02-20T15:40:31.619Z,25.33
2019-02-20T15:43:01.631Z,27.40
2019-02-20T15:45:30.990Z,25.87
2019-02-20T15:48:00.414Z,28.20
2019-02-20T15:50:29.799Z,25.87
2019-02-20T15:52:59.103Z,26.03
2019-02-20T15:55:28.433Z,25.00
2019-02-20T15:57:57.725Z,24.07
2019-02-20T16:00:27.151Z,24.23
2019-02-20T16:02:56.759Z,24.87
2019-02-20T16:05:26.236Z,27.17
2019-02-20T16:07:55.546Z,30.80
2019-02-20T16:10:24.880Z,23.50
2019-02-20T16:12:54.123Z,28.40
2019-02-20T16:15:24.297Z,30.10
2019-02-20T16:17:54.074Z,25.93
2019-02-20T16:20:23.395Z,25.70
2019-02-20T16:22:52.699Z,23.93
2019-02-20T16:25:23.732Z,20.97
2019-02-20T16:27:52.861Z,26.57
2019-02-20T16:30:22.195Z,26.63
2019-02-20T16:32:51.427Z,28.17
2019-02-20T16:35:20.683Z,23.27
2019-02-20T16:37:49.919Z,22.13
2019-02-20T16:40:19.243Z,18.53
2019-02-20T16:42:48.479Z,22.20
2019-02-20T16:45:23.044Z,24.17
2019-02-20T16:47:52.756Z,24.40
2019-02-20T16:50:22.038Z,20.13
2019-02-20T16:52:51.393Z,20.90
2019-02-20T16:55:22.600Z,19.03
2019-02-20T16:57:56.658Z,16.07
2019-02-20T17:00:23.403Z,16.80
2019-02-20T17:02:52.958Z,15.80
2019-02-20T17:05:22.354Z,16.97
2019-02-20T17:07:51.849Z,18.20
2019-02-20T17:10:21.244Z,15.73
2019-02-20T17:12:50.515Z,21.00
2019-02-20T17:15:19.742Z,18.27
2019-02-20T17:17:49.404Z,16.53
2019-02-20T17:20:18.686Z,18.23
2019-02-20T17:22:48.025Z,15.23
2019-02-20T17:25:18.252Z,18.70
2019-02-20T17:27:47.486Z,18.50
2019-02-20T17:30:16.863Z,16.97
2019-02-20T17:32:46.969Z,15.13
2019-02-20T17:35:17.172Z,16.90
2019-02-20T17:37:46.579Z,17.30
2019-02-20T17:40:16.317Z,19.43
2019-02-20T17:42:45.660Z,17.27
2019-02-20T17:45:14.971Z,13.30
2019-02-20T17:47:44.728Z,15.30
2019-02-20T17:50:15.059Z,16.80
2019-02-20T17:52:44.340Z,13.80
2019-02-20T17:55:13.780Z,13.47
2019-02-20T17:57:43.064Z,14.10
2019-02-20T18:00:13.289Z,17.23
2019-02-20T18:02:42.550Z,14.00
2019-02-20T18:05:13.759Z,16.53
2019-02-20T18:07:50.825Z,14.03
2019-02-20T18:10:14.046Z,13.87
2019-02-20T18:12:43.285Z,23.03
2019-02-20T18:15:12.724Z,16.37
2019-02-20T18:17:41.980Z,15.93
2019-02-20T18:20:11.348Z,16.73
2019-02-20T18:22:40.651Z,20.77
2019-02-20T18:25:10.106Z,24.13
2019-02-20T18:27:39.327Z,23.83
2019-02-20T18:30:08.894Z,25.07
2019-02-20T18:32:38.200Z,21.47
2019-02-20T18:35:08.493Z,21.77
2019-02-20T18:37:37.711Z,34.23
2019-02-20T18:40:07.619Z,29.83
2019-02-20T18:42:36.888Z,35.83
2019-02-20T18:45:07.859Z,27.17
2019-02-20T18:47:37.098Z,24.23
2019-02-20T18:50:07.451Z,21.83
2019-02-20T18:52:36.683Z,25.47
2019-02-20T18:55:06.703Z,19.30
2019-02-20T18:57:35.964Z,16.23
2019-02-20T19:00:07.353Z,21.50
2019-02-20T19:02:36.525Z,17.73
2019-02-20T19:05:06.533Z,17.30
2019-02-20T19:07:35.797Z,17.20
2019-02-20T19:10:07.966Z,16.60
2019-02-20T19:12:56.084Z,17.27
2019-02-20T19:15:40.852Z,12.67
2019-02-20T19:18:47.022Z,16.60
2019-02-20T19:21:39.652Z,11.97
2019-02-20T19:24:51.712Z,17.23
2019-02-20T19:27:43.335Z,12.50
2019-02-20T19:31:11.948Z,18.47
2019-02-20T19:34:28.183Z,18.60
2019-02-20T19:37:34.286Z,14.10
2019-02-20T19:40:35.024Z,14.43
2019-02-20T19:43:38.253Z,15.93
2019-02-20T19:46:53.931Z,11.80
2019-02-20T19:50:05.851Z,14.53
2019-02-20T19:53:08.565Z,10.27
2019-02-20T19:56:31.163Z,20.00
2019-02-20T19:59:33.741Z,10.17
2019-02-20T20:02:34.249Z,14.20
2019-02-20T20:05:50.798Z,14.67
2019-02-20T20:08:54.239Z,19.73
2019-02-20T20:12:04.603Z,16.70
2019-02-20T20:14:49.984Z,17.67
2019-02-20T20:17:42.371Z,13.43
2019-02-20T20:20:24.440Z,14.60
2019-02-20T20:23:20.000Z,15.37
2019-02-20T20:26:39.907Z,14.10
2019-02-20T20:29:52.086Z,20.27
2019-02-20T20:33:00.305Z,15.50
2019-02-20T20:35:54.646Z,21.17
2019-02-20T20:38:34.996Z,16.40
2019-02-20T20:41:57.528Z,15.40
2019-02-20T20:44:57.972Z,16.50
2019-02-20T20:47:37.221Z,17.23
2019-02-20T20:50:36.303Z,14.73
2019-02-20T20:53:47.073Z,10.30
2019-02-20T20:56:57.750Z,14.10
2019-02-20T20:59:38.184Z,10.00
2019-02-20T21:02:37.449Z,17.63
2019-02-20T21:05:37.654Z,9.97
2019-02-20T21:08:39.399Z,13.10
2019-02-20T21:11:48.395Z,13.97
2019-02-20T21:14:56.805Z,13.87
2019-02-20T21:18:14.608Z,14.03
2019-02-20T21:21:10.920Z,16.40
2019-02-20T21:24:25.129Z,11.97
2019-02-20T21:27:29.937Z,14.70
2019-02-20T21:30:27.427Z,10.73
2019-02-20T21:33:51.981Z,15.97
2019-02-20T21:36:37.991Z,9.63
2019-02-20T21:39:29.637Z,11.63
2019-02-20T21:42:15.117Z,10.50
2019-02-20T21:45:06.187Z,14.00
2019-02-20T21:48:02.353Z,11.57
2019-02-20T21:51:18.627Z,15.57
2019-02-20T21:54:13.712Z,11.03
2019-02-20T21:57:33.088Z,12.73
2019-02-20T22:00:50.342Z,16.60
2019-02-20T22:04:00.491Z,13.77
2019-02-20T22:07:02.394Z,12.27
2019-02-20T22:10:07.334Z,16.27
2019-02-20T22:13:00.968Z,12.17
2019-02-20T22:15:47.991Z,16.93
2019-02-20T22:18:50.668Z,16.50
2019-02-20T22:22:16.077Z,16.50
2019-02-20T22:25:15.592Z,14.83
2019-02-20T22:28:13.128Z,12.97
2019-02-20T22:31:29.358Z,11.50
2019-02-20T22:34:54.728Z,17.23
2019-02-20T22:38:00.144Z,12.90
2019-02-20T22:40:49.081Z,14.00
2019-02-20T22:44:04.384Z,12.13
2019-02-20T22:47:21.178Z,16.53
2019-02-20T22:50:25.144Z,10.60
2019-02-20T22:53:25.432Z,15.40
2019-02-20T22:56:41.879Z,14.17
2019-02-20T22:59:26.538Z,13.53
2019-02-20T23:02:38.418Z,10.83
2019-02-20T23:05:52.061Z,13.43
2019-02-20T23:08:34.124Z,15.73
2019-02-20T23:11:36.699Z,16.23
2019-02-20T23:14:39.968Z,18.13
2019-02-20T23:17:09.268Z,15.80
2019-02-20T23:19:38.575Z,17.70
2019-02-20T23:22:07.843Z,17.53
2019-02-20T23:24:37.052Z,17.87
2019-02-20T23:27:06.332Z,17.83
2019-02-20T23:29:35.500Z,15.00
2019-02-20T23:32:04.759Z,20.87
2019-02-20T23:34:33.955Z,17.33
2019-02-20T23:37:03.246Z,13.03
2019-02-20T23:39:32.488Z,15.03
2019-02-20T23:42:01.993Z,16.50
2019-02-20T23:44:31.323Z,13.80
2019-02-20T23:47:00.547Z,12.67
2019-02-20T23:49:29.842Z,15.60
2019-02-20T23:51:59.097Z,12.57
2019-02-20T23:54:28.415Z,15.57
2019-02-20T23:56:57.634Z,15.73
2019-02-20T23:59:26.917Z,18.47
